Time;durP1;ratioP1;P1;durP2;ratioP2;P2;SDS_P1;SDS_P2;PMS_P1;PMS_P2;Temp;Humidity;BMP_temperature;BMP_pressure;BME280_temperature;BME280_humidity;BME280_pressure;Samples;Min_cycle;Max_cycle;Signal;HPM_P1;HPM_P2
2021/09/19 00:01:23;;;;;;;;;8.00;8.00;;;;;19.84;81.30;100472.53;5141421;27;8820;-72
2021/09/19 00:04:19;;;;;;;;;8.50;8.50;;;;;19.82;81.37;100469.34;5141582;27;8813;-73
2021/09/19 00:07:15;;;;;;;;;9.25;9.25;;;;;19.90;81.04;100470.94;5155081;27;8837;-72
2021/09/19 00:09:43;;;;;;;;;7.25;7.25;;;;;19.93;81.16;100472.94;5138096;27;8833;-73
2021/09/19 00:12:40;;;;;;;;;7.50;7.50;;;;;19.91;81.17;100484.56;5155158;27;8836;-72
2021/09/19 00:15:36;;;;;;;;;6.00;6.00;;;;;19.94;81.68;100478.19;5155028;27;8849;-73
2021/09/19 00:18:31;;;;;;;;;8.00;8.00;;;;;19.92;82.20;100477.75;5155232;27;8837;-73
2021/09/19 00:21:27;;;;;;;;;7.25;7.25;;;;;19.90;82.05;100468.94;5154800;27;8813;-74
2021/09/19 00:24:23;;;;;;;;;8.50;8.50;;;;;19.86;82.65;100461.72;5138044;27;8865;-73
2021/09/19 00:27:19;;;;;;;;;8.00;8.00;;;;;19.96;81.88;100467.34;5134407;27;9589;-73
2021/09/19 00:30:15;;;;;;;;;7.50;7.50;;;;;20.05;81.45;100469.75;5135118;27;8919;-73
2021/09/19 00:33:11;;;;;;;;;9.00;9.00;;;;;19.98;81.72;100459.31;5134397;27;8874;-73
2021/09/19 00:36:06;;;;;;;;;8.00;8.00;;;;;20.06;81.68;100470.56;5133728;27;9616;-72
2021/09/19 00:39:02;;;;;;;;;9.00;9.00;;;;;20.05;82.43;100469.75;5120187;27;8843;-73
2021/09/19 00:41:58;;;;;;;;;8.50;8.50;;;;;19.83;84.15;100479.34;5133812;27;8950;-73
2021/09/19 00:45:03;;;;;;;;;7.75;7.75;;;;;19.76;85.34;100488.56;5120011;27;8831;-73
2021/09/19 00:47:31;;;;;;;;;8.25;8.25;;;;;19.66;86.15;100492.97;5118383;27;8831;-73
2021/09/19 00:50:27;;;;;;;;;8.25;8.25;;;;;19.91;84.83;100486.56;5131982;27;8852;-74
2021/09/19 00:53:22;;;;;;;;;9.00;9.00;;;;;19.87;86.62;100480.19;5148658;27;8856;-75
2021/09/19 00:56:23;;;;;;;;;10.50;10.50;;;;;19.86;87.10;100475.72;5144784;27;8817;-74
2021/09/19 00:59:20;;;;;;;;;9.50;9.50;;;;;19.82;87.48;100472.13;5154048;27;8821;-73
2021/09/19 01:02:03;;;;;;;;;11.00;11.00;;;;;19.87;87.98;100468.94;5155537;27;8845;-73
2021/09/19 01:04:59;;;;;;;;;10.75;10.00;;;;;19.88;88.42;100467.75;5149218;27;8826;-74
2021/09/19 01:07:55;;;;;;;;;11.00;11.00;;;;;19.89;88.73;100472.94;5133513;27;9618;-73
2021/09/19 01:10:26;;;;;;;;;10.25;10.25;;;;;19.90;87.79;100479.38;5134565;27;9536;-73
2021/09/19 01:13:21;;;;;;;;;8.75;8.75;;;;;19.72;90.14;100479.34;5133436;27;8876;-74
2021/09/19 01:16:19;;;;;;;;;10.25;10.00;;;;;19.80;90.09;100482.97;5138981;27;8839;-74
2021/09/19 01:19:21;;;;;;;;;11.50;11.50;;;;;19.80;90.15;100491.38;5146724;27;8849;-74
2021/09/19 01:22:17;;;;;;;;;10.25;10.25;;;;;19.73;90.46;100499.78;5135244;27;8894;-73
2021/09/19 01:25:15;;;;;;;;;11.50;11.50;;;;;19.52;92.25;100495.69;5151730;27;8929;-73
2021/09/19 01:28:12;;;;;;;;;10.00;10.00;;;;;19.49;92.64;100464.84;5153927;27;8809;-74
2021/09/19 01:31:07;;;;;;;;;10.50;10.50;;;;;19.58;92.51;100459.69;5147964;27;8825;-74
2021/09/19 01:34:04;;;;;;;;;11.75;11.75;;;;;19.57;93.45;100467.28;5153492;27;8821;-74
2021/09/19 01:36:59;;;;;;;;;12.00;12.00;;;;;19.54;93.99;100462.44;5139218;27;8845;-74
2021/09/19 01:39:28;;;;;;;;;10.00;10.00;;;;;19.60;94.22;100468.50;5154975;27;8875;-73
2021/09/19 01:42:26;;;;;;;;;9.75;9.75;;;;;19.55;94.88;100477.25;5153854;27;8864;-74
2021/09/19 01:45:23;;;;;;;;;9.50;9.50;;;;;19.69;94.03;100474.53;5153566;27;8817;-74
2021/09/19 01:48:19;;;;;;;;;12.00;12.00;;;;;19.63;94.65;100465.72;5151968;27;8841;-75
2021/09/19 01:51:15;;;;;;;;;13.75;13.75;;;;;19.66;95.03;100459.28;5139819;27;8813;-74
2021/09/19 01:54:10;;;;;;;;;12.50;12.50;;;;;19.75;94.89;100469.31;5153432;27;8971;-73
2021/09/19 01:57:06;;;;;;;;;12.00;12.00;;;;;19.76;95.15;100459.69;5153715;27;9495;-74
2021/09/19 02:00:03;;;;;;;;;12.75;12.75;;;;;19.85;95.10;100462.91;5139753;27;8897;-71
2021/09/19 02:02:59;;;;;;;;;13.75;13.75;;;;;19.93;94.91;100448.47;5153729;27;9581;-71
2021/09/19 02:05:54;;;;;;;;;14.75;14.75;;;;;19.94;94.63;100447.31;5153537;27;8829;-71
2021/09/19 02:08:51;;;;;;;;;11.50;11.50;;;;;19.98;94.41;100447.28;5144230;27;9007;-70
2021/09/19 02:11:46;;;;;;;;;13.00;13.00;;;;;19.97;94.11;100451.31;5132858;27;8831;-70
2021/09/19 02:14:43;;;;;;;;;11.00;10.00;;;;;19.96;94.20;100441.28;5118897;27;8855;-70
2021/09/19 02:17:39;;;;;;;;;11.25;11.25;;;;;19.88;93.82;100443.28;5136564;27;8843;-71
2021/09/19 02:20:34;;;;;;;;;11.25;11.25;;;;;20.03;93.33;100441.28;5122635;27;8850;-70
2021/09/19 02:23:30;;;;;;;;;10.75;10.75;;;;;20.09;92.82;100444.47;5136569;27;9461;-70
2021/09/19 02:25:58;;;;;;;;;10.25;10.25;;;;;20.15;92.94;100449.28;5152575;27;8879;-70
2021/09/19 02:28:53;;;;;;;;;11.00;11.00;;;;;20.12;93.28;100443.69;5157013;27;8837;-71
2021/09/19 02:31:49;;;;;;;;;11.00;11.00;;;;;20.10;93.00;100440.50;5157131;27;8853;-71
2021/09/19 02:34:44;;;;;;;;;11.50;11.50;;;;;20.17;92.94;100435.66;5157023;27;8837;-71
2021/09/19 02:37:41;;;;;;;;;12.75;12.75;;;;;20.27;92.50;100436.84;5156986;27;8839;-71
2021/09/19 02:40:36;;;;;;;;;11.50;11.50;;;;;20.26;92.61;100436.06;5156830;27;8829;-71
2021/09/19 02:43:32;;;;;;;;;11.25;11.25;;;;;20.27;92.95;100436.84;5142952;27;8821;-71
2021/09/19 02:46:28;;;;;;;;;11.75;11.75;;;;;20.30;92.67;100433.22;5156921;27;8821;-71
2021/09/19 02:48:55;;;;;;;;;13.75;13.75;;;;;20.27;92.59;100437.66;5152654;27;8882;-70
2021/09/19 02:51:51;;;;;;;;;14.50;13.00;;;;;20.34;92.61;100436.06;5127560;27;8835;-70
2021/09/19 02:54:46;;;;;;;;;12.00;12.00;;;;;20.37;92.40;100444.47;5141840;27;8825;-71
2021/09/19 02:57:42;;;;;;;;;13.50;13.50;;;;;20.41;92.33;100441.66;5142918;27;8857;-71
2021/09/19 03:00:38;;;;;;;;;12.50;12.50;;;;;20.37;92.61;100436.03;5148331;27;8819;-71
2021/09/19 03:03:33;;;;;;;;;12.00;12.00;;;;;20.40;93.22;100432.44;5135769;27;8957;-71
2021/09/19 03:06:24;;;;;;;;;9.50;9.50;;;;;20.40;92.38;100431.63;5136145;27;8839;-71
2021/09/19 03:09:19;;;;;;;;;10.25;10.25;;;;;20.36;92.07;100433.63;5135630;27;8831;-71
2021/09/19 03:11:49;;;;;;;;;13.25;13.25;;;;;20.31;90.98;100434.81;5137848;27;8831;-71
2021/09/19 03:14:45;;;;;;;;;12.00;12.00;;;;;20.31;90.44;100431.22;5135391;27;8843;-70
2021/09/19 03:17:41;;;;;;;;;11.75;11.75;;;;;20.36;89.77;100428.81;5135618;27;8970;-71
2021/09/19 03:20:37;;;;;;;;;10.25;10.25;;;;;20.36;89.74;100447.66;5121703;27;8837;-71
2021/09/19 03:23:32;;;;;;;;;12.50;12.50;;;;;20.38;89.55;100436.81;5135451;27;8815;-71
2021/09/19 03:26:00;;;;;;;;;12.75;12.75;;;;;20.36;89.68;100444.88;5136084;27;8843;-70
2021/09/19 03:28:56;;;;;;;;;11.00;11.00;;;;;20.41;89.29;100444.47;5121513;27;8843;-71
2021/09/19 03:31:51;;;;;;;;;12.25;12.25;;;;;20.17;90.08;100443.28;5135276;27;8811;-71
2021/09/19 03:34:19;;;;;;;;;12.00;12.00;;;;;20.42;88.92;100443.25;5136352;27;8831;-71
2021/09/19 03:37:20;;;;;;;;;12.50;12.50;;;;;20.12;90.47;100452.09;5123175;27;8843;-71
2021/09/19 03:40:15;;;;;;;;;16.50;15.75;;;;;20.23;89.75;100442.47;5134880;27;8826;-71
2021/09/19 03:43:11;;;;;;;;;11.75;11.75;;;;;20.34;88.41;100442.47;5142039;27;8932;-71
2021/09/19 03:46:07;;;;;;;;;14.50;14.50;;;;;20.09;90.03;100448.09;5141834;27;8893;-71
2021/09/19 03:49:02;;;;;;;;;14.75;14.75;;;;;20.10;90.40;100455.31;5147726;27;8814;-71
2021/09/19 03:51:58;;;;;;;;;13.00;13.00;;;;;20.11;90.06;100440.09;5145741;27;8837;-71
2021/09/19 03:54:53;;;;;;;;;13.75;13.75;;;;;20.17;90.57;100430.06;5130157;27;8816;-71
2021/09/19 03:57:49;;;;;;;;;15.75;15.75;;;;;20.12;90.17;100436.06;5144958;27;8835;-71
2021/09/19 04:00:45;;;;;;;;;13.00;13.00;;;;;20.00;90.13;100431.66;5141715;27;8948;-71
2021/09/19 04:03:40;;;;;;;;;14.75;14.75;;;;;20.04;90.23;100450.50;5143419;27;8825;-71
2021/09/19 04:06:36;;;;;;;;;15.00;15.00;;;;;19.84;90.49;100441.66;5143495;27;9627;-72
2021/09/19 04:09:32;;;;;;;;;13.25;13.25;;;;;19.99;89.86;100449.69;5143879;27;8809;-71
2021/09/19 04:12:00;;;;;;;;;17.00;16.00;;;;;19.86;90.53;100444.88;5143011;27;8919;-71
2021/09/19 04:14:56;;;;;;;;;15.00;15.00;;;;;20.00;90.72;100448.47;5141323;27;8912;-71
2021/09/19 04:17:52;;;;;;;;;15.75;15.75;;;;;20.09;89.76;100456.53;5130678;27;9022;-71
2021/09/19 04:20:48;;;;;;;;;14.50;14.50;;;;;20.22;89.51;100457.72;5141934;27;8832;-71
2021/09/19 04:23:44;;;;;;;;;15.25;15.25;;;;;20.12;89.11;100452.91;5134074;27;8849;-70
2021/09/19 04:26:40;;;;;;;;;16.25;15.75;;;;;20.10;89.62;100457.34;5143710;27;8882;-71
2021/09/19 04:29:36;;;;;;;;;16.50;15.75;;;;;20.22;89.19;100468.13;5143921;27;8824;-71
2021/09/19 04:32:32;;;;;;;;;17.00;17.00;;;;;20.19;89.19;100475.38;5128591;27;8841;-71
2021/09/19 04:35:28;;;;;;;;;21.25;21.25;;;;;20.15;87.88;100482.19;5132961;27;8888;-71
2021/09/19 04:38:23;;;;;;;;;29.75;29.75;;;;;20.26;88.13;100474.56;5142921;27;8854;-71
2021/09/19 04:41:19;;;;;;;;;35.33;32.67;;;;;19.99;89.38;100466.53;5140856;27;8833;-71
2021/09/19 04:44:14;;;;;;;;;28.00;28.00;;;;;20.09;88.75;100473.38;5133568;27;8987;-71
2021/09/19 04:47:10;;;;;;;;;21.50;21.50;;;;;20.08;88.91;100480.16;5143582;27;8837;-72
2021/09/19 04:50:07;;;;;;;;;28.00;28.00;;;;;20.21;89.08;100484.19;5132232;27;8919;-72
2021/09/19 04:53:02;;;;;;;;;20.75;20.75;;;;;20.08;89.31;100480.16;5127212;27;8964;-71
2021/09/19 04:55:58;;;;;;;;;22.25;22.25;;;;;20.11;89.02;100472.97;5140852;27;8809;-71
2021/09/19 04:58:54;;;;;;;;;18.25;18.25;;;;;20.12;88.55;100471.75;5137661;27;8839;-72
2021/09/19 05:01:49;;;;;;;;;22.75;21.75;;;;;19.98;89.14;100478.16;5142552;27;8858;-71
2021/09/19 05:04:45;;;;;;;;;21.00;21.00;;;;;20.07;88.29;100478.56;5140602;27;8887;-72
2021/09/19 05:07:40;;;;;;;;;18.00;18.00;;;;;20.25;86.97;100482.19;5144306;27;8814;-71
2021/09/19 05:10:30;;;;;;;;;20.00;20.00;;;;;20.35;86.89;100485.38;5138612;27;8841;-71
2021/09/19 05:13:25;;;;;;;;;21.25;21.25;;;;;20.09;89.04;100483.78;5143385;27;8827;-71
2021/09/19 05:16:21;;;;;;;;;23.00;23.00;;;;;20.13;89.24;100481.78;5128786;27;8858;-70
2021/09/19 05:19:17;;;;;;;;;21.00;20.75;;;;;20.06;88.35;100490.19;5141349;27;8811;-72
2021/09/19 05:22:13;;;;;;;;;19.50;19.50;;;;;19.80;90.45;100482.97;5141665;27;8857;-71
2021/09/19 05:25:09;;;;;;;;;18.25;18.25;;;;;20.04;89.36;100493.41;5139918;27;9589;-71
2021/09/19 05:28:04;;;;;;;;;21.25;21.25;;;;;19.92;90.61;100488.97;5140162;27;8829;-71
2021/09/19 05:31:00;;;;;;;;;21.50;21.50;;;;;19.75;90.39;100494.56;5139879;27;8835;-71
2021/09/19 05:33:57;;;;;;;;;22.50;22.50;;;;;19.94;90.45;100497.03;5142916;27;8821;-71
2021/09/19 05:36:53;;;;;;;;;21.25;21.25;;;;;20.01;90.53;100508.22;5140831;27;9595;-71
2021/09/19 05:39:48;;;;;;;;;20.75;20.75;;;;;20.18;89.23;100496.22;5141799;27;8827;-71
2021/09/19 05:42:44;;;;;;;;;21.75;21.75;;;;;20.00;90.61;100495.41;5141692;27;8959;-71
2021/09/19 05:45:40;;;;;;;;;23.50;22.75;;;;;20.26;89.90;100499.84;5141547;27;8803;-71
2021/09/19 05:48:36;;;;;;;;;19.75;19.75;;;;;20.41;86.98;100507.06;5140678;27;8823;-70
2021/09/19 05:51:17;;;;;;;;;25.25;24.25;;;;;20.73;83.96;100500.63;5154488;27;8853;-70
2021/09/19 05:54:13;;;;;;;;;15.50;15.50;;;;;20.89;83.00;100505.78;5143958;27;8873;-70
2021/09/19 05:57:08;;;;;;;;;18.50;18.50;;;;;21.23;80.10;100504.06;5156061;27;9692;-71
2021/09/19 06:00:06;;;;;;;;;19.75;19.75;;;;;21.36;80.56;100505.25;5143022;27;9598;-71
2021/09/19 06:03:03;;;;;;;;;17.00;17.00;;;;;21.06;82.50;100500.09;5144472;27;8831;-70
2021/09/19 06:05:58;;;;;;;;;18.25;18.25;;;;;21.00;82.48;100492.50;5136875;27;8831;-70
2021/09/19 06:08:54;;;;;;;;;23.00;23.00;;;;;20.96;83.32;100486.09;5136873;27;8843;-71
2021/09/19 06:11:49;;;;;;;;;21.75;21.75;;;;;20.87;84.43;100488.53;5123062;27;8827;-70
2021/09/19 06:14:30;;;;;;;;;19.00;18.50;;;;;21.38;81.31;100493.56;5136355;27;8839;-70
2021/09/19 06:17:26;;;;;;;;;14.50;14.50;;;;;21.40;80.68;100491.19;5144326;27;8837;-71
2021/09/19 06:19:54;;;;;;;;;20.25;20.25;;;;;21.70;79.16;100493.41;5153013;27;8875;-71
2021/09/19 06:22:50;;;;;;;;;20.00;20.00;;;;;21.64;80.70;100504.31;5130845;27;8839;-71
2021/09/19 06:25:46;;;;;;;;;22.50;22.50;;;;;21.19;83.92;100508.91;5136451;27;8843;-71
2021/09/19 06:28:42;;;;;;;;;23.75;23.75;;;;;21.26;83.06;100503.25;5140753;27;9602;-71
2021/09/19 06:31:37;;;;;;;;;20.75;20.75;;;;;21.19;83.16;100505.28;5152876;27;8917;-71
2021/09/19 06:34:26;;;;;;;;;24.00;24.00;;;;;21.48;81.67;100508.81;5138821;27;8834;-70
2021/09/19 06:37:15;;;;;;;;;29.50;29.50;;;;;21.08;82.83;100520.19;5137385;27;9563;-71
2021/09/19 06:40:12;;;;;;;;;25.00;24.50;;;;;21.42;81.52;100516.06;5136111;27;8865;-70
2021/09/19 06:43:07;;;;;;;;;33.00;31.75;;;;;21.62;80.58;100519.97;5145706;27;8863;-70
2021/09/19 06:46:03;;;;;;;;;32.25;30.25;;;;;21.88;78.80;100516.59;5137194;27;8831;-71
2021/09/19 06:49:00;;;;;;;;;36.50;33.25;;;;;21.76;80.36;100521.91;5154953;27;8837;-71
2021/09/19 06:52:02;;;;;;;;;33.50;32.00;;;;;21.80;80.19;100525.53;5155384;27;8912;-71
2021/09/19 06:54:57;;;;;;;;;36.25;33.50;;;;;21.78;79.32;100527.94;5135910;27;8899;-71
2021/09/19 06:57:55;;;;;;;;;32.00;30.25;;;;;21.90;78.37;100533.88;5135774;27;9671;-71
2021/09/19 07:00:50;;;;;;;;;38.75;35.00;;;;;21.57;81.41;100528.88;5135149;27;8835;-71
2021/09/19 07:03:46;;;;;;;;;36.50;33.25;;;;;21.30;80.68;100532.19;5137067;27;8816;-70
2021/09/19 07:06:41;;;;;;;;;29.00;29.00;;;;;21.71;79.31;100531.59;5137031;27;8843;-71
2021/09/19 07:09:26;;;;;;;;;35.00;31.75;;;;;21.49;79.79;100528.09;5139228;27;8842;-71
2021/09/19 07:12:22;;;;;;;;;28.00;28.00;;;;;21.90;77.33;100531.06;5155027;27;9727;-72
2021/09/19 07:15:17;;;;;;;;;34.50;32.00;;;;;21.80;76.99;100528.34;5138437;27;8807;-71
2021/09/19 07:18:13;;;;;;;;;35.25;31.25;;;;;21.94;76.74;100536.69;5136823;27;8861;-72
2021/09/19 07:21:09;;;;;;;;;27.75;27.25;;;;;21.86;76.27;100538.75;5122391;27;8865;-71
2021/09/19 07:24:04;;;;;;;;;27.75;27.75;;;;;22.27;74.10;100540.09;5131074;27;9569;-71
2021/09/19 07:27:03;;;;;;;;;29.50;26.75;;;;;22.23;75.72;100534.47;5146542;27;8928;-72
2021/09/19 07:30:00;;;;;;;;;33.50;31.75;;;;;22.18;73.96;100530.09;5136034;27;8870;-71
2021/09/19 07:32:55;;;;;;;;;33.25;31.50;;;;;21.99;75.50;100535.44;5135051;27;8839;-71
2021/09/19 07:35:52;;;;;;;;;27.00;26.75;;;;;22.26;74.53;100533.66;5137502;27;8919;-71
2021/09/19 07:38:20;;;;;;;;;30.00;28.25;;;;;22.23;74.51;100542.94;5134728;27;8860;-71
2021/09/19 07:40:50;;;;;;;;;29.50;29.50;;;;;22.14;74.52;100551.06;5138876;27;8897;-73
2021/09/19 07:43:46;;;;;;;;;27.25;26.00;;;;;22.27;74.22;100554.19;5147123;27;8827;-72
2021/09/19 07:46:16;;;;;;;;;26.25;26.00;;;;;22.32;74.23;100554.56;5137249;27;8855;-71
2021/09/19 07:48:45;;;;;;;;;34.25;30.75;;;;;22.35;74.39;100550.09;5134494;27;8817;-72
2021/09/19 07:51:41;;;;;;;;;28.25;26.75;;;;;22.34;74.40;100552.13;5155241;27;9625;-72
2021/09/19 07:54:36;;;;;;;;;31.75;30.75;;;;;22.35;74.22;100547.28;5146507;27;8821;-72
2021/09/19 07:57:32;;;;;;;;;27.25;27.25;;;;;22.05;76.56;100547.88;5155557;27;8840;-71
2021/09/19 08:00:27;;;;;;;;;29.25;29.25;;;;;22.57;75.08;100550.72;5135055;27;8823;-71
2021/09/19 08:03:09;;;;;;;;;25.50;25.50;;;;;22.51;72.57;100553.19;5151436;27;8928;-70
2021/09/19 08:06:05;;;;;;;;;25.25;25.25;;;;;22.04;72.97;100538.63;5141545;27;8852;-71
2021/09/19 08:09:02;;;;;;;;;23.50;23.50;;;;;22.37;72.53;100540.00;5138462;27;8809;-70
2021/09/19 08:11:30;;;;;;;;;24.25;24.25;;;;;22.54;72.27;100540.25;5156749;27;8825;-70
2021/09/19 08:14:18;;;;;;;;;24.75;24.75;;;;;22.62;72.21;100547.44;5134214;27;8835;-71
2021/09/19 08:17:14;;;;;;;;;25.75;25.75;;;;;22.22;73.59;100549.78;5134517;27;8846;-71
2021/09/19 08:20:11;;;;;;;;;25.25;25.25;;;;;22.09;73.46;100543.84;5120628;27;8823;-71
2021/09/19 08:22:40;;;;;;;;;20.50;20.50;;;;;21.89;73.96;100551.19;5117296;27;8831;-70
2021/09/19 08:25:35;;;;;;;;;25.00;25.00;;;;;22.13;73.56;100549.44;5134188;27;8831;-71
2021/09/19 08:28:31;;;;;;;;;24.50;24.50;;;;;22.12;73.53;100553.50;5134089;27;8847;-71
2021/09/19 08:31:27;;;;;;;;;26.00;25.00;;;;;22.29;72.89;100552.53;5120433;27;8843;-71
2021/09/19 08:34:22;;;;;;;;;23.00;23.00;;;;;22.32;72.24;100553.75;5134108;27;8838;-70
2021/09/19 08:37:18;;;;;;;;;27.00;26.25;;;;;22.04;73.77;100554.72;5133887;27;8850;-70
2021/09/19 08:40:14;;;;;;;;;22.50;22.50;;;;;22.04;74.04;100565.97;5133844;27;8842;-71
2021/09/19 08:42:54;;;;;;;;;29.67;27.67;;;;;21.68;75.56;100554.91;4666220;27;15135384;-71
2021/09/19 08:45:38;;;;;;;;;24.50;24.50;;;;;22.08;74.06;100558.31;5121068;27;14367;-71
2021/09/19 08:48:34;;;;;;;;;26.25;26.25;;;;;22.37;73.17;100558.94;5114133;28;8844;-71
2021/09/19 08:51:30;;;;;;;;;27.75;27.50;;;;;22.59;73.44;100551.09;5090164;28;8867;-71
2021/09/19 08:54:10;;;;;;;;;22.33;22.33;;;;;23.03;71.71;100556.72;4669320;27;15050620;-71
2021/09/19 08:57:06;;;;;;;;;21.50;21.50;;;;;23.38;68.35;100545.44;5178686;27;9556;-71
2021/09/19 09:00:14;;;;;;;;;24.50;24.50;;;;;23.52;68.47;100551.69;5192886;27;8827;-71
2021/09/19 09:02:51;;;;;;;;;26.75;26.75;;;;;24.09;66.14;100550.94;5182655;27;8863;-70
2021/09/19 09:05:55;;;;;;;;;29.25;29.25;;;;;23.80;67.05;100556.22;5171816;27;8846;-71
2021/09/19 09:08:50;;;;;;;;;27.25;27.25;;;;;23.00;69.99;100568.88;5171535;27;8882;-71
2021/09/19 09:12:08;;;;;;;;;24.00;24.00;;;;;23.01;70.45;100573.28;5171547;27;8816;-70
2021/09/19 09:15:05;;;;;;;;;24.75;24.75;;;;;23.49;68.03;100574.34;5157805;27;8837;-71
2021/09/19 09:18:04;;;;;;;;;23.25;23.00;;;;;23.66;66.78;100572.53;5157672;27;8825;-71
2021/09/19 09:21:06;;;;;;;;;26.25;25.25;;;;;22.82;67.97;100579.47;5171332;27;8813;-72
2021/09/19 09:24:03;;;;;;;;;19.75;19.75;;;;;22.86;67.68;100583.09;5171520;27;9546;-70
2021/09/19 09:26:37;;;;;;;;;20.50;20.50;;;;;23.18;66.94;100584.78;5172302;27;8848;-70
2021/09/19 09:29:32;;;;;;;;;20.00;20.00;;;;;23.14;67.13;100581.97;5170915;27;8857;-72
2021/09/19 09:32:28;;;;;;;;;22.25;22.25;;;;;22.62;68.95;100576.44;5171059;27;8837;-70
2021/09/19 09:35:12;;;;;;;;;24.25;24.25;;;;;22.52;69.48;100584.97;5172247;27;8821;-72
2021/09/19 09:38:19;;;;;;;;;18.50;18.50;;;;;23.10;67.74;100586.09;5180678;27;8833;-72
2021/09/19 09:41:01;;;;;;;;;26.25;25.75;;;;;23.28;66.92;100578.22;5155240;27;8853;-70
2021/09/19 09:43:56;;;;;;;;;22.50;22.50;;;;;23.84;65.67;100579.53;5157191;27;8975;-70
2021/09/19 09:46:52;;;;;;;;;25.50;25.50;;;;;24.46;64.06;100585.09;5171125;27;8844;-70
2021/09/19 09:49:53;;;;;;;;;27.25;27.00;;;;;24.38;63.57;100590.91;5156923;27;8832;-71
2021/09/19 09:52:49;;;;;;;;;23.50;23.50;;;;;24.05;63.95;100583.28;5170459;27;9119;-72
2021/09/19 09:55:45;;;;;;;;;34.00;32.25;;;;;23.92;64.37;100588.72;5170774;27;8916;-71
2021/09/19 09:58:41;;;;;;;;;28.75;27.50;;;;;24.27;62.72;100583.78;5170636;27;8833;-71
2021/09/19 10:01:38;;;;;;;;;30.50;30.00;;;;;24.35;62.04;100593.78;5170593;27;8820;-71
2021/09/19 10:04:34;;;;;;;;;29.25;29.25;;;;;24.51;60.94;100595.94;5149124;27;8833;-71
2021/09/19 10:07:30;;;;;;;;;23.25;23.25;;;;;24.75;60.20;100594.72;5156783;27;8852;-71
2021/09/19 10:09:58;;;;;;;;;32.00;31.00;;;;;24.63;58.40;100598.16;5157576;27;8833;-70
2021/09/19 10:12:58;;;;;;;;;30.25;29.00;;;;;24.83;59.56;100586.91;5156524;27;8836;-71
2021/09/19 10:15:54;;;;;;;;;32.50;31.25;;;;;25.21;57.79;100585.41;5156525;27;8805;-71
2021/09/19 10:18:50;;;;;;;;;23.25;23.25;;;;;25.76;57.09;100583.09;5156367;27;8948;-71
2021/09/19 10:21:48;;;;;;;;;32.50;31.25;;;;;25.57;56.35;100583.91;5156489;27;8809;-72
2021/09/19 10:24:44;;;;;;;;;26.20;26.00;;;;;25.65;56.98;100591.81;5156255;27;8936;-71
2021/09/19 10:27:40;;;;;;;;;21.00;19.40;;;;;25.92;54.50;100591.66;5156105;27;8832;-73
2021/09/19 10:30:22;;;;;;;;;23.60;23.60;;;;;26.07;54.91;100580.81;5157076;27;8856;-70
2021/09/19 10:33:34;;;;;;;;;20.40;20.40;;;;;26.51;51.50;100581.38;5142329;27;8868;-71
2021/09/19 10:36:39;;;;;;;;;22.00;22.00;;;;;27.10;51.01;100572.56;5156086;27;8913;-71
2021/09/19 10:39:45;;;;;;;;;19.80;19.80;;;;;27.65;50.82;100569.78;5141489;27;8875;-72
2021/09/19 10:42:49;;;;;;;;;18.60;18.60;;;;;27.62;47.78;100573.53;5155924;27;8959;-72
2021/09/19 10:45:51;;;;;;;;;15.60;15.60;;;;;27.84;48.11;100576.56;5155830;27;9568;-72
2021/09/19 10:48:48;;;;;;;;;16.80;16.80;;;;;27.82;47.93;100568.47;5155745;27;8828;-71
2021/09/19 10:52:01;;;;;;;;;17.00;17.00;;;;;27.43;48.55;100563.94;5155012;27;8825;-71
2021/09/19 10:54:57;;;;;;;;;15.00;15.00;;;;;27.44;46.95;100566.31;5155842;27;8848;-71
2021/09/19 10:57:55;;;;;;;;;16.80;16.80;;;;;27.26;47.23;100568.09;5155480;27;8828;-68
2021/09/19 11:01:10;;;;;;;;;15.60;14.60;;;;;27.10;49.11;100563.25;5155808;27;9574;-68
2021/09/19 11:04:08;;;;;;;;;15.20;15.20;;;;;27.38;47.77;100559.63;5140684;27;8961;-68
2021/09/19 11:07:04;;;;;;;;;11.80;11.80;;;;;26.96;47.72;100555.09;5162285;27;8846;-68
2021/09/19 11:10:02;;;;;;;;;12.40;12.40;;;;;26.74;49.56;100558.50;5167303;27;8887;-69
2021/09/19 11:13:21;;;;;;;;;12.80;12.80;;;;;26.42;47.62;100558.53;5162323;27;8865;-68
2021/09/19 11:16:23;;;;;;;;;15.00;15.00;;;;;26.23;48.56;100549.66;5140402;27;8809;-70
2021/09/19 11:19:24;;;;;;;;;16.20;16.20;;;;;26.44;48.45;100548.34;5142951;27;8929;-67
2021/09/19 11:22:00;;;;;;;;;15.40;15.40;;;;;26.39;49.73;100553.75;5156087;27;9635;-68
2021/09/19 11:24:58;;;;;;;;;17.60;17.60;;;;;26.43;49.30;100546.75;5160000;27;8827;-69
2021/09/19 11:27:53;;;;;;;;;12.20;12.20;;;;;25.98;48.21;100547.38;5165382;27;8799;-68
2021/09/19 11:30:56;;;;;;;;;14.80;14.80;;;;;25.36;49.89;100542.66;5158348;27;8840;-68
2021/09/19 11:33:52;;;;;;;;;13.40;13.40;;;;;25.14;49.31;100533.81;5162049;27;8819;-68
2021/09/19 11:36:52;;;;;;;;;12.40;12.40;;;;;24.91;50.37;100538.25;5175914;27;8819;-68
2021/09/19 11:39:47;;;;;;;;;15.40;15.40;;;;;25.25;52.46;100537.22;5158818;27;8943;-67
2021/09/19 11:42:43;;;;;;;;;13.00;13.00;;;;;25.27;51.18;100539.63;5176075;27;8861;-68
2021/09/19 11:45:10;;;;;;;;;12.60;12.60;;;;;25.78;50.59;100536.13;5164030;27;8841;-68
2021/09/19 11:48:07;;;;;;;;;11.60;11.60;;;;;26.12;50.55;100537.75;5154781;27;8845;-67
2021/09/19 11:51:03;;;;;;;;;13.40;13.40;;;;;26.21;50.10;100529.44;5165438;27;8871;-67
2021/09/19 11:53:58;;;;;;;;;10.40;10.40;;;;;26.82;46.94;100531.53;5145244;27;9420;-68
2021/09/19 11:56:54;;;;;;;;;8.40;8.40;;;;;26.70;44.21;100525.81;5154594;27;8829;-69
2021/09/19 11:59:49;;;;;;;;;8.20;8.20;;;;;26.93;43.56;100533.31;5154230;27;8840;-68
2021/09/19 12:02:48;;;;;;;;;8.40;8.40;;;;;27.41;42.60;100536.00;5148485;27;8817;-67
2021/09/19 12:05:52;;;;;;;;;7.20;7.20;;;;;27.13;42.15;100531.91;5163407;27;8920;-68
2021/09/19 12:08:50;;;;;;;;;7.00;7.00;;;;;27.80;40.18;100534.03;5148074;27;8815;-67
2021/09/19 12:11:54;;;;;;;;;8.00;8.00;;;;;27.95;39.60;100529.50;5148894;27;8839;-69
2021/09/19 12:14:52;;;;;;;;;7.40;7.40;;;;;28.09;39.36;100527.47;5161841;27;8863;-68
2021/09/19 12:18:05;;;;;;;;;7.60;7.60;;;;;28.40;38.84;100525.63;5160850;27;9585;-68
2021/09/19 12:21:13;;;;;;;;;6.20;6.20;;;;;28.58;38.39;100524.22;5167909;27;8827;-69
2021/09/19 12:24:09;;;;;;;;;7.00;7.00;;;;;28.75;38.18;100522.78;5174792;27;8927;-68
2021/09/19 12:27:18;;;;;;;;;8.20;8.20;;;;;28.71;39.18;100519.28;5174113;27;9006;-70
2021/09/19 12:30:16;;;;;;;;;9.40;9.40;;;;;28.67;37.54;100519.41;5174307;27;8871;-68
2021/09/19 12:33:12;;;;;;;;;8.00;8.00;;;;;29.10;37.97;100509.38;5175063;27;8893;-69
2021/09/19 12:36:09;;;;;;;;;10.00;10.00;;;;;28.52;38.91;100507.75;5156363;27;8816;-70
2021/09/19 12:39:04;;;;;;;;;12.60;12.60;;;;;28.49;39.74;100514.34;5139515;27;8918;-67
2021/09/19 12:42:07;;;;;;;;;13.40;13.40;;;;;28.43;39.21;100516.16;5153844;27;8839;-70
2021/09/19 12:45:08;;;;;;;;;12.00;12.00;;;;;28.48;38.81;100512.75;5153281;27;8896;-68
2021/09/19 12:48:08;;;;;;;;;15.40;15.40;;;;;28.03;38.95;100510.16;5153680;27;9617;-68
2021/09/19 12:50:37;;;;;;;;;14.80;14.80;;;;;28.28;41.05;100512.19;5154967;27;8959;-68
2021/09/19 12:53:35;;;;;;;;;15.40;15.40;;;;;28.28;39.08;100503.66;5153671;27;8913;-68
2021/09/19 12:56:31;;;;;;;;;17.80;17.20;;;;;28.21;40.04;100503.88;5153053;27;8825;-68
2021/09/19 12:58:59;;;;;;;;;14.80;14.80;;;;;28.83;39.47;100509.09;5154544;27;8844;-68
2021/09/19 13:01:26;;;;;;;;;11.60;11.60;;;;;28.84;40.11;100519.25;5153837;27;9644;-68
2021/09/19 13:04:22;;;;;;;;;20.00;20.00;;;;;28.35;42.72;100520.50;5153055;27;8857;-69
2021/09/19 13:07:18;;;;;;;;;16.60;16.60;;;;;27.80;43.50;100510.50;5139748;27;8936;-67
2021/09/19 13:10:20;;;;;;;;;20.40;20.40;;;;;27.49;45.39;100519.53;5157852;27;9559;-67
2021/09/19 13:13:16;;;;;;;;;18.80;18.80;;;;;27.28;45.55;100523.00;5160134;27;8830;-68
2021/09/19 13:16:12;;;;;;;;;20.40;20.40;;;;;27.03;46.32;100518.00;5162061;27;8949;-68
2021/09/19 13:19:09;;;;;;;;;24.60;24.60;;;;;26.87;47.43;100522.50;5162011;27;8825;-68
2021/09/19 13:22:05;;;;;;;;;22.80;22.80;;;;;26.65;47.34;100526.34;5159835;27;8931;-68